sensor_id;sensor_type;location;lat;lon;timestamp;pressure;altitude;pressure_sealevel;temperature;humidity
7888;BME280;3989;48.810;9.208;2023-04-30T00:02:23;99095.78;;;11.52;100.00
7888;BME280;3989;48.810;9.208;2023-04-30T00:04:50;99109.31;;;11.51;100.00
7888;BME280;3989;48.810;9.208;2023-04-30T00:07:16;99025.47;;;10.98;100.00
7888;BME280;3989;48.810;9.208;2023-04-30T00:09:43;99084.66;;;11.41;100.00
7888;BME280;3989;48.810;9.208;2023-04-30T00:12:09;99117.31;;;11.51;100.00
7888;BME280;3989;48.810;9.208;2023-04-30T00:14:37;99111.47;;;11.55;100.00
7888;BME280;3989;48.810;9.208;2023-04-30T00:17:04;99006.47;;;10.93;100.00
7888;BME280;3989;48.810;9.208;2023-04-30T00:19:30;99108.13;;;11.53;100.00
7888;BME280;3989;48.810;9.208;2023-04-30T00:21:57;99102.75;;;11.53;100.00
7888;BME280;3989;48.810;9.208;2023-04-30T00:24:25;99102.13;;;11.51;100.00
7888;BME280;3989;48.810;9.208;2023-04-30T00:26:52;99105.78;;;11.50;100.00
7888;BME280;3989;48.810;9.208;2023-04-30T00:29:18;99103.47;;;11.47;100.00
7888;BME280;3989;48.810;9.208;2023-04-30T00:31:46;99087.38;;;11.33;100.00
7888;BME280;3989;48.810;9.208;2023-04-30T00:34:13;99037.16;;;10.97;100.00
7888;BME280;3989;48.810;9.208;2023-04-30T00:36:39;99105.03;;;11.42;100.00
7888;BME280;3989;48.810;9.208;2023-04-30T00:39:06;99037.16;;;10.97;100.00
7888;BME280;3989;48.810;9.208;2023-04-30T00:41:34;99107.06;;;11.40;100.00
7888;BME280;3989;48.810;9.208;2023-04-30T00:44:00;99007.19;;;10.79;100.00
7888;BME280;3989;48.810;9.208;2023-04-30T00:46:27;99114.59;;;11.36;100.00
7888;BME280;3989;48.810;9.208;2023-04-30T00:48:56;99110.25;;;11.35;100.00
7888;BME280;3989;48.810;9.208;2023-04-30T00:51:25;99109.94;;;11.30;100.00
7888;BME280;3989;48.810;9.208;2023-04-30T00:53:52;98972.69;;;10.39;100.00
7888;BME280;3989;48.810;9.208;2023-04-30T00:56:19;99119.13;;;11.28;100.00
7888;BME280;3989;48.810;9.208;2023-04-30T00:58:46;99079.53;;;11.00;100.00
7888;BME280;3989;48.810;9.208;2023-04-30T01:01:16;99122.81;;;11.27;100.00
7888;BME280;3989;48.810;9.208;2023-04-30T01:03:43;99121.16;;;11.26;100.00
7888;BME280;3989;48.810;9.208;2023-04-30T01:06:11;99118.31;;;11.27;100.00
7888;BME280;3989;48.810;9.208;2023-04-30T01:08:38;99118.81;;;11.23;100.00
7888;BME280;3989;48.810;9.208;2023-04-30T01:11:14;99035.44;;;10.74;100.00
7888;BME280;3989;48.810;9.208;2023-04-30T01:13:49;99124.16;;;11.23;100.00
7888;BME280;3989;48.810;9.208;2023-04-30T01:16:22;99115.31;;;11.22;100.00
7888;BME280;3989;48.810;9.208;2023-04-30T01:18:53;99117.50;;;11.19;100.00
7888;BME280;3989;48.810;9.208;2023-04-30T01:21:23;99105.03;;;11.11;100.00
7888;BME280;3989;48.810;9.208;2023-04-30T01:24:26;99103.66;;;11.15;100.00
7888;BME280;3989;48.810;9.208;2023-04-30T01:27:06;99053.91;;;10.83;100.00
7888;BME280;3989;48.810;9.208;2023-04-30T01:29:40;99103.50;;;11.17;100.00
7888;BME280;3989;48.810;9.208;2023-04-30T01:32:09;99109.84;;;11.16;100.00
7888;BME280;3989;48.810;9.208;2023-04-30T01:34:35;99106.69;;;11.12;100.00
7888;BME280;3989;48.810;9.208;2023-04-30T01:37:10;99103.38;;;11.10;100.00
7888;BME280;3989;48.810;9.208;2023-04-30T01:40:03;99101.53;;;11.11;100.00
7888;BME280;3989;48.810;9.208;2023-04-30T01:42:38;99105.38;;;11.08;100.00
7888;BME280;3989;48.810;9.208;2023-04-30T01:45:18;99075.09;;;10.85;100.00
7888;BME280;3989;48.810;9.208;2023-04-30T01:47:51;99098.72;;;11.04;100.00
7888;BME280;3989;48.810;9.208;2023-04-30T01:50:27;99071.94;;;10.81;100.00
7888;BME280;3989;48.810;9.208;2023-04-30T01:52:58;99096.75;;;10.98;100.00
7888;BME280;3989;48.810;9.208;2023-04-30T01:55:27;99054.66;;;10.69;100.00
7888;BME280;3989;48.810;9.208;2023-04-30T01:57:57;99077.78;;;10.85;100.00
7888;BME280;3989;48.810;9.208;2023-04-30T02:00:27;99098.44;;;10.91;100.00
7888;BME280;3989;48.810;9.208;2023-04-30T02:02:54;99104.97;;;10.88;100.00
7888;BME280;3989;48.810;9.208;2023-04-30T02:05:21;99098.94;;;10.86;100.00
7888;BME280;3989;48.810;9.208;2023-04-30T02:07:49;99069.00;;;10.68;100.00
7888;BME280;3989;48.810;9.208;2023-04-30T02:10:17;99097.94;;;10.87;100.00
7888;BME280;3989;48.810;9.208;2023-04-30T02:12:44;99095.44;;;10.86;100.00
7888;BME280;3989;48.810;9.208;2023-04-30T02:15:11;99081.50;;;10.76;100.00
7888;BME280;3989;48.810;9.208;2023-04-30T02:17:39;99049.84;;;10.57;100.00
7888;BME280;3989;48.810;9.208;2023-04-30T02:20:07;99088.47;;;10.77;100.00
7888;BME280;3989;48.810;9.208;2023-04-30T02:22:33;99080.66;;;10.75;100.00
7888;BME280;3989;48.810;9.208;2023-04-30T02:25:00;99093.16;;;10.75;100.00
7888;BME280;3989;48.810;9.208;2023-04-30T02:27:29;99087.34;;;10.71;100.00
7888;BME280;3989;48.810;9.208;2023-04-30T02:29:56;99079.66;;;10.68;100.00
7888;BME280;3989;48.810;9.208;2023-04-30T02:32:23;99078.34;;;10.64;100.00
7888;BME280;3989;48.810;9.208;2023-04-30T02:34:51;99086.69;;;10.61;100.00
7888;BME280;3989;48.810;9.208;2023-04-30T02:37:18;99086.03;;;10.59;100.00
7888;BME280;3989;48.810;9.208;2023-04-30T02:39:44;99088.53;;;10.61;100.00
7888;BME280;3989;48.810;9.208;2023-04-30T02:42:11;99057.59;;;10.35;100.00
7888;BME280;3989;48.810;9.208;2023-04-30T02:44:37;99090.06;;;10.55;100.00
7888;BME280;3989;48.810;9.208;2023-04-30T02:47:04;99073.91;;;10.40;100.00
7888;BME280;3989;48.810;9.208;2023-04-30T02:49:31;99075.09;;;10.30;100.00
7888;BME280;3989;48.810;9.208;2023-04-30T02:51:59;99100.56;;;10.48;100.00
7888;BME280;3989;48.810;9.208;2023-04-30T02:54:25;99005.97;;;9.88;100.00
7888;BME280;3989;48.810;9.208;2023-04-30T02:56:52;99100.91;;;10.45;100.00
7888;BME280;3989;48.810;9.208;2023-04-30T02:59:18;99031.28;;;10.00;100.00
7888;BME280;3989;48.810;9.208;2023-04-30T03:01:45;99100.56;;;10.40;100.00
7888;BME280;3989;48.810;9.208;2023-04-30T03:04:11;99088.09;;;10.33;100.00
7888;BME280;3989;48.810;9.208;2023-04-30T03:06:38;99061.13;;;10.20;100.00
7888;BME280;3989;48.810;9.208;2023-04-30T03:09:06;99096.59;;;10.36;100.00
7888;BME280;3989;48.810;9.208;2023-04-30T03:11:32;99093.25;;;10.34;100.00
7888;BME280;3989;48.810;9.208;2023-04-30T03:14:01;99098.09;;;10.31;100.00
7888;BME280;3989;48.810;9.208;2023-04-30T03:16:28;99102.97;;;10.27;100.00
7888;BME280;3989;48.810;9.208;2023-04-30T03:18:55;98986.84;;;9.52;100.00
7888;BME280;3989;48.810;9.208;2023-04-30T03:21:22;99081.31;;;10.14;100.00
7888;BME280;3989;48.810;9.208;2023-04-30T03:23:48;99098.94;;;10.15;100.00
7888;BME280;3989;48.810;9.208;2023-04-30T03:26:16;99106.81;;;10.17;100.00
7888;BME280;3989;48.810;9.208;2023-04-30T03:28:43;99096.28;;;10.15;100.00
7888;BME280;3989;48.810;9.208;2023-04-30T03:31:09;99077.09;;;10.03;100.00
7888;BME280;3989;48.810;9.208;2023-04-30T03:33:36;99069.94;;;9.96;100.00
7888;BME280;3989;48.810;9.208;2023-04-30T03:36:03;99089.44;;;10.13;100.00
7888;BME280;3989;48.810;9.208;2023-04-30T03:38:29;99090.94;;;10.15;100.00
7888;BME280;3989;48.810;9.208;2023-04-30T03:40:56;99071.28;;;10.00;100.00
7888;BME280;3989;48.810;9.208;2023-04-30T03:43:24;99014.31;;;9.61;100.00
7888;BME280;3989;48.810;9.208;2023-04-30T03:45:50;99094.25;;;10.09;100.00
7888;BME280;3989;48.810;9.208;2023-04-30T03:48:17;99069.63;;;9.91;100.00
7888;BME280;3989;48.810;9.208;2023-04-30T03:50:43;99100.59;;;10.00;100.00
7888;BME280;3989;48.810;9.208;2023-04-30T03:53:10;99104.44;;;9.97;100.00
7888;BME280;3989;48.810;9.208;2023-04-30T03:55:37;99090.44;;;9.95;100.00
7888;BME280;3989;48.810;9.208;2023-04-30T03:58:04;99093.63;;;9.91;100.00
7888;BME280;3989;48.810;9.208;2023-04-30T04:00:32;99092.75;;;9.98;100.00
7888;BME280;3989;48.810;9.208;2023-04-30T04:02:58;99095.78;;;10.03;100.00
7888;BME280;3989;48.810;9.208;2023-04-30T04:05:25;99099.09;;;10.06;100.00
7888;BME280;3989;48.810;9.208;2023-04-30T04:07:52;99086.78;;;10.05;100.00
7888;BME280;3989;48.810;9.208;2023-04-30T04:10:18;99058.28;;;9.89;100.00
7888;BME280;3989;48.810;9.208;2023-04-30T04:12:45;99093.94;;;10.04;100.00
7888;BME280;3989;48.810;9.208;2023-04-30T04:15:11;99101.09;;;10.03;100.00
7888;BME280;3989;48.810;9.208;2023-04-30T04:17:39;99112.94;;;10.09;100.00
7888;BME280;3989;48.810;9.208;2023-04-30T04:20:07;99065.94;;;9.84;100.00
7888;BME280;3989;48.810;9.208;2023-04-30T04:22:34;99049.16;;;9.75;100.00
7888;BME280;3989;48.810;9.208;2023-04-30T04:25:00;99116.47;;;10.18;100.00
7888;BME280;3989;48.810;9.208;2023-04-30T04:27:27;99111.78;;;10.20;100.00
7888;BME280;3989;48.810;9.208;2023-04-30T04:29:53;99081.78;;;10.01;100.00
7888;BME280;3989;48.810;9.208;2023-04-30T04:32:20;99075.78;;;10.08;100.00
7888;BME280;3989;48.810;9.208;2023-04-30T04:34:49;99099.13;;;10.14;100.00
7888;BME280;3989;48.810;9.208;2023-04-30T04:37:15;99116.75;;;10.31;100.00
7888;BME280;3989;48.810;9.208;2023-04-30T04:39:42;99107.63;;;10.33;100.00
7888;BME280;3989;48.810;9.208;2023-04-30T04:42:09;99114.09;;;10.31;100.00
7888;BME280;3989;48.810;9.208;2023-04-30T04:44:35;99097.09;;;10.32;100.00
7888;BME280;3989;48.810;9.208;2023-04-30T04:47:02;99115.25;;;10.44;100.00
7888;BME280;3989;48.810;9.208;2023-04-30T04:49:29;99124.75;;;10.55;100.00
7888;BME280;3989;48.810;9.208;2023-04-30T04:51:56;99123.41;;;10.59;100.00
7888;BME280;3989;48.810;9.208;2023-04-30T04:54:23;99117.72;;;10.62;100.00
7888;BME280;3989;48.810;9.208;2023-04-30T04:56:50;99122.03;;;10.63;100.00
7888;BME280;3989;48.810;9.208;2023-04-30T04:59:16;99119.88;;;10.67;100.00
7888;BME280;3989;48.810;9.208;2023-04-30T05:01:43;99106.38;;;10.60;100.00
7888;BME280;3989;48.810;9.208;2023-04-30T05:04:10;99065.09;;;10.40;100.00
7888;BME280;3989;48.810;9.208;2023-04-30T05:06:38;99119.84;;;10.75;100.00
7888;BME280;3989;48.810;9.208;2023-04-30T05:09:06;99116.00;;;10.77;100.00
7888;BME280;3989;48.810;9.208;2023-04-30T05:11:33;99119.81;;;10.83;100.00
7888;BME280;3989;48.810;9.208;2023-04-30T05:14:00;99114.63;;;10.89;100.00
7888;BME280;3989;48.810;9.208;2023-04-30T05:16:26;99111.09;;;10.97;100.00
7888;BME280;3989;48.810;9.208;2023-04-30T05:18:53;98980.78;;;10.15;100.00
7888;BME280;3989;48.810;9.208;2023-04-30T05:21:19;99124.88;;;11.17;100.00
7888;BME280;3989;48.810;9.208;2023-04-30T05:23:46;99126.97;;;11.29;100.00
7888;BME280;3989;48.810;9.208;2023-04-30T05:26:14;99066.13;;;11.08;100.00
7888;BME280;3989;48.810;9.208;2023-04-30T05:28:40;99114.34;;;11.46;100.00
7888;BME280;3989;48.810;9.208;2023-04-30T05:31:07;99116.88;;;11.70;100.00
7888;BME280;3989;48.810;9.208;2023-04-30T05:33:33;99027.47;;;11.27;100.00
7888;BME280;3989;48.810;9.208;2023-04-30T05:36:01;99126.31;;;11.89;100.00
7888;BME280;3989;48.810;9.208;2023-04-30T05:38:27;99124.19;;;11.99;100.00
7888;BME280;3989;48.810;9.208;2023-04-30T05:40:54;99107.41;;;11.90;100.00
7888;BME280;3989;48.810;9.208;2023-04-30T05:43:22;99126.81;;;12.07;100.00
7888;BME280;3989;48.810;9.208;2023-04-30T05:45:48;99080.91;;;11.81;100.00
7888;BME280;3989;48.810;9.208;2023-04-30T05:48:15;99093.66;;;11.93;100.00
7888;BME280;3989;48.810;9.208;2023-04-30T05:50:41;99112.47;;;12.23;100.00
7888;BME280;3989;48.810;9.208;2023-04-30T05:53:09;99116.56;;;12.33;100.00
7888;BME280;3989;48.810;9.208;2023-04-30T05:55:35;99087.53;;;12.22;100.00
7888;BME280;3989;48.810;9.208;2023-04-30T05:58:02;99118.59;;;12.60;100.00
7888;BME280;3989;48.810;9.208;2023-04-30T06:00:30;99039.22;;;12.24;100.00
7888;BME280;3989;48.810;9.208;2023-04-30T06:02:56;99122.88;;;12.70;100.00
7888;BME280;3989;48.810;9.208;2023-04-30T06:05:23;99073.38;;;12.51;100.00
7888;BME280;3989;48.810;9.208;2023-04-30T06:07:49;99114.94;;;12.91;100.00
7888;BME280;3989;48.810;9.208;2023-04-30T06:10:16;99117.34;;;13.00;100.00
7888;BME280;3989;48.810;9.208;2023-04-30T06:12:42;99043.47;;;12.62;100.00
7888;BME280;3989;48.810;9.208;2023-04-30T06:15:09;99125.25;;;13.38;100.00
7888;BME280;3989;48.810;9.208;2023-04-30T06:17:37;99122.72;;;13.51;100.00
7888;BME280;3989;48.810;9.208;2023-04-30T06:20:05;99107.91;;;13.34;100.00
7888;BME280;3989;48.810;9.208;2023-04-30T06:22:32;99105.25;;;13.55;100.00
7888;BME280;3989;48.810;9.208;2023-04-30T06:24:59;99126.31;;;13.58;100.00
7888;BME280;3989;48.810;9.208;2023-04-30T06:27:25;99100.88;;;13.54;100.00
7888;BME280;3989;48.810;9.208;2023-04-30T06:29:53;99129.41;;;13.97;100.00
7888;BME280;3989;48.810;9.208;2023-04-30T06:32:19;99030.59;;;13.58;100.00
7888;BME280;3989;48.810;9.208;2023-04-30T06:34:47;99117.19;;;14.16;100.00
7888;BME280;3989;48.810;9.208;2023-04-30T06:37:14;99127.16;;;14.43;100.00
7888;BME280;3989;48.810;9.208;2023-04-30T06:39:40;99129.38;;;14.67;100.00
7888;BME280;3989;48.810;9.208;2023-04-30T06:42:07;99129.88;;;14.78;100.00
7888;BME280;3989;48.810;9.208;2023-04-30T06:44:33;99073.72;;;14.55;100.00
7888;BME280;3989;48.810;9.208;2023-04-30T06:47:00;99118.59;;;14.89;96.29
7888;BME280;3989;48.810;9.208;2023-04-30T06:49:27;99146.69;;;14.93;94.76
7888;BME280;3989;48.810;9.208;2023-04-30T06:51:55;99129.72;;;14.86;95.93
7888;BME280;3989;48.810;9.208;2023-04-30T06:54:22;99039.97;;;14.39;95.90
7888;BME280;3989;48.810;9.208;2023-04-30T06:56:51;98957.34;;;14.07;90.28
7888;BME280;3989;48.810;9.208;2023-04-30T06:59:18;99136.09;;;15.19;89.56
7888;BME280;3989;48.810;9.208;2023-04-30T07:01:50;99004.38;;;14.31;88.39
7888;BME280;3989;48.810;9.208;2023-04-30T07:04:22;99036.63;;;14.71;90.10
7888;BME280;3989;48.810;9.208;2023-04-30T07:06:52;99135.00;;;15.48;86.40
7888;BME280;3989;48.810;9.208;2023-04-30T07:09:42;98899.09;;;14.01;83.85
7888;BME280;3989;48.810;9.208;2023-04-30T07:12:10;99039.00;;;14.88;84.78
7888;BME280;3989;48.810;9.208;2023-04-30T07:14:38;99128.34;;;15.37;88.40
7888;BME280;3989;48.810;9.208;2023-04-30T07:17:13;99119.47;;;15.43;87.40
7888;BME280;3989;48.810;9.208;2023-04-30T07:19:40;99065.00;;;14.81;84.82
7888;BME280;3989;48.810;9.208;2023-04-30T07:22:07;98883.91;;;13.25;89.90
7888;BME280;3989;48.810;9.208;2023-04-30T07:24:34;98857.16;;;13.10;91.14
7888;BME280;3989;48.810;9.208;2023-04-30T07:27:02;98954.19;;;13.69;91.21
7888;BME280;3989;48.810;9.208;2023-04-30T07:29:31;98885.81;;;13.31;89.77
7888;BME280;3989;48.810;9.208;2023-04-30T07:31:58;98872.63;;;13.36;89.86
7888;BME280;3989;48.810;9.208;2023-04-30T07:34:25;99066.22;;;14.78;88.27
7888;BME280;3989;48.810;9.208;2023-04-30T07:36:52;99125.13;;;15.14;81.72
7888;BME280;3989;48.810;9.208;2023-04-30T07:39:18;99037.03;;;14.68;82.07
7888;BME280;3989;48.810;9.208;2023-04-30T07:41:45;98881.03;;;13.82;84.13
7888;BME280;3989;48.810;9.208;2023-04-30T07:44:14;99118.28;;;15.59;81.89
7888;BME280;3989;48.810;9.208;2023-04-30T07:46:41;99047.31;;;15.06;77.81
7888;BME280;3989;48.810;9.208;2023-04-30T07:49:07;99035.97;;;15.04;79.46
7888;BME280;3989;48.810;9.208;2023-04-30T07:51:34;99102.78;;;15.61;79.41
7888;BME280;3989;48.810;9.208;2023-04-30T07:54:01;98954.19;;;14.72;75.39
7888;BME280;3989;48.810;9.208;2023-04-30T07:56:31;98928.94;;;14.60;77.30
7888;BME280;3989;48.810;9.208;2023-04-30T07:58:58;98994.66;;;15.18;78.49
7888;BME280;3989;48.810;9.208;2023-04-30T08:01:29;98964.59;;;14.88;76.39
7888;BME280;3989;48.810;9.208;2023-04-30T08:03:55;98928.16;;;14.73;77.81
7888;BME280;3989;48.810;9.208;2023-04-30T08:06:22;99051.66;;;15.61;79.78
7888;BME280;3989;48.810;9.208;2023-04-30T08:08:48;99107.81;;;16.03;75.84
7888;BME280;3989;48.810;9.208;2023-04-30T08:11:15;99091.91;;;16.15;72.35
7888;BME280;3989;48.810;9.208;2023-04-30T08:13:42;99010.47;;;15.73;71.24
7888;BME280;3989;48.810;9.208;2023-04-30T08:16:08;99104.53;;;16.21;70.56
7888;BME280;3989;48.810;9.208;2023-04-30T08:18:37;98941.94;;;15.37;69.02
7888;BME280;3989;48.810;9.208;2023-04-30T08:21:08;98919.59;;;15.23;63.60
7888;BME280;3989;48.810;9.208;2023-04-30T08:23:34;99099.97;;;16.28;63.35
7888;BME280;3989;48.810;9.208;2023-04-30T08:26:01;99085.03;;;16.32;64.14
7888;BME280;3989;48.810;9.208;2023-04-30T08:28:45;98978.00;;;15.82;62.07
7888;BME280;3989;48.810;9.208;2023-04-30T08:31:23;98852.81;;;15.59;59.13
7888;BME280;3989;48.810;9.208;2023-04-30T08:34:12;99055.44;;;17.16;56.45
7888;BME280;3989;48.810;9.208;2023-04-30T08:36:42;98948.88;;;16.62;55.50
7888;BME280;3989;48.810;9.208;2023-04-30T08:39:08;98951.19;;;16.97;54.81
7888;BME280;3989;48.810;9.208;2023-04-30T08:41:38;98949.78;;;17.25;54.02
7888;BME280;3989;48.810;9.208;2023-04-30T08:44:09;99077.16;;;18.03;52.61
7888;BME280;3989;48.810;9.208;2023-04-30T08:46:37;99104.78;;;18.05;51.59
7888;BME280;3989;48.810;9.208;2023-04-30T08:49:04;99086.53;;;17.69;50.55
7888;BME280;3989;48.810;9.208;2023-04-30T08:51:33;99094.28;;;17.91;48.57
7888;BME280;3989;48.810;9.208;2023-04-30T08:54:00;99107.59;;;18.17;48.30
7888;BME280;3989;48.810;9.208;2023-04-30T08:56:27;98890.53;;;16.30;49.49
7888;BME280;3989;48.810;9.208;2023-04-30T08:58:55;99112.75;;;17.49;49.36
7888;BME280;3989;48.810;9.208;2023-04-30T09:01:22;99065.91;;;16.93;49.99
7888;BME280;3989;48.810;9.208;2023-04-30T09:03:49;98883.22;;;15.66;49.79
7888;BME280;3989;48.810;9.208;2023-04-30T09:06:16;99061.00;;;16.44;50.20
7888;BME280;3989;48.810;9.208;2023-04-30T09:11:39;98984.19;;;16.21;51.18
7888;BME280;3989;48.810;9.208;2023-04-30T09:14:06;98886.28;;;15.90;48.57
7888;BME280;3989;48.810;9.208;2023-04-30T09:16:49;98956.28;;;16.80;48.63
7888;BME280;3989;48.810;9.208;2023-04-30T09:19:24;99090.34;;;17.93;47.69
7888;BME280;3989;48.810;9.208;2023-04-30T09:22:41;99088.53;;;18.12;46.15
7888;BME280;3989;48.810;9.208;2023-04-30T09:25:39;99060.63;;;17.93;44.97
7888;BME280;3989;48.810;9.208;2023-04-30T09:28:08;98999.38;;;17.87;44.16
7888;BME280;3989;48.810;9.208;2023-04-30T09:33:45;99111.75;;;18.87;43.30
7888;BME280;3989;48.810;9.208;2023-04-30T09:39:17;99117.94;;;18.76;43.72
7888;BME280;3989;48.810;9.208;2023-04-30T09:42:05;99063.53;;;18.66;43.43
7888;BME280;3989;48.810;9.208;2023-04-30T09:44:43;99000.53;;;18.65;43.10
7888;BME280;3989;48.810;9.208;2023-04-30T09:47:14;99079.31;;;19.23;42.44
7888;BME280;3989;48.810;9.208;2023-04-30T09:49:42;98991.75;;;18.70;42.81
7888;BME280;3989;48.810;9.208;2023-04-30T09:52:21;98917.09;;;18.14;42.52
7888;BME280;3989;48.810;9.208;2023-04-30T09:54:59;98964.88;;;18.57;42.64
7888;BME280;3989;48.810;9.208;2023-04-30T09:57:29;99018.88;;;19.29;41.72
7888;BME280;3989;48.810;9.208;2023-04-30T10:00:00;98863.63;;;18.71;41.47
7888;BME280;3989;48.810;9.208;2023-04-30T10:02:27;99120.50;;;20.33;40.74
7888;BME280;3989;48.810;9.208;2023-04-30T10:04:56;99021.66;;;19.71;40.52
7888;BME280;3989;48.810;9.208;2023-04-30T10:07:24;99090.31;;;19.76;40.64
7888;BME280;3989;48.810;9.208;2023-04-30T10:09:56;99071.47;;;19.52;41.18
7888;BME280;3989;48.810;9.208;2023-04-30T10:12:29;99092.44;;;19.86;40.98
7888;BME280;3989;48.810;9.208;2023-04-30T10:15:05;98946.50;;;19.25;39.57
7888;BME280;3989;48.810;9.208;2023-04-30T10:17:34;99007.53;;;19.80;39.40
7888;BME280;3989;48.810;9.208;2023-04-30T10:20:07;99065.13;;;20.40;39.41
7888;BME280;3989;48.810;9.208;2023-04-30T10:22:35;98889.22;;;19.28;38.52
7888;BME280;3989;48.810;9.208;2023-04-30T10:25:02;99040.63;;;20.35;38.30
7888;BME280;3989;48.810;9.208;2023-04-30T10:27:30;99067.25;;;20.38;39.58
7888;BME280;3989;48.810;9.208;2023-04-30T10:29:58;99077.38;;;20.43;39.35
7888;BME280;3989;48.810;9.208;2023-04-30T10:32:31;98849.53;;;18.69;38.88
7888;BME280;3989;48.810;9.208;2023-04-30T10:35:05;98974.88;;;19.22;39.31
7888;BME280;3989;48.810;9.208;2023-04-30T10:37:40;99062.13;;;19.66;39.68
7888;BME280;3989;48.810;9.208;2023-04-30T10:40:09;99091.88;;;19.54;39.98
7888;BME280;3989;48.810;9.208;2023-04-30T10:42:44;98988.38;;;18.56;40.43
7888;BME280;3989;48.810;9.208;2023-04-30T10:45:11;99034.06;;;18.15;42.16
7888;BME280;3989;48.810;9.208;2023-04-30T10:47:41;99098.84;;;18.89;41.69
7888;BME280;3989;48.810;9.208;2023-04-30T10:50:10;99079.75;;;19.20;41.74
7888;BME280;3989;48.810;9.208;2023-04-30T10:52:37;99057.94;;;19.52;41.35
7888;BME280;3989;48.810;9.208;2023-04-30T10:55:05;99067.78;;;19.64;41.52
7888;BME280;3989;48.810;9.208;2023-04-30T10:57:41;99075.00;;;19.52;40.93
7888;BME280;3989;48.810;9.208;2023-04-30T11:00:18;99064.94;;;19.23;41.28
7888;BME280;3989;48.810;9.208;2023-04-30T11:02:46;99038.03;;;19.28;41.19
7888;BME280;3989;48.810;9.208;2023-04-30T11:05:15;99056.78;;;19.59;40.62
7888;BME280;3989;48.810;9.208;2023-04-30T11:07:47;99031.84;;;19.57;40.09
7888;BME280;3989;48.810;9.208;2023-04-30T11:10:20;99008.63;;;19.50;40.38
7888;BME280;3989;48.810;9.208;2023-04-30T11:12:49;99054.00;;;19.66;40.08
7888;BME280;3989;48.810;9.208;2023-04-30T11:15:17;99041.59;;;19.58;41.31
7888;BME280;3989;48.810;9.208;2023-04-30T11:17:45;99008.50;;;19.45;40.52
7888;BME280;3989;48.810;9.208;2023-04-30T11:20:12;99003.41;;;19.78;40.77
7888;BME280;3989;48.810;9.208;2023-04-30T11:22:39;99011.97;;;20.28;39.41
7888;BME280;3989;48.810;9.208;2023-04-30T11:25:08;99007.31;;;19.93;40.18
7888;BME280;3989;48.810;9.208;2023-04-30T11:27:37;99055.59;;;19.85;40.48
7888;BME280;3989;48.810;9.208;2023-04-30T11:30:11;99057.66;;;20.13;40.41
7888;BME280;3989;48.810;9.208;2023-04-30T11:32:40;99046.81;;;20.24;39.86
7888;BME280;3989;48.810;9.208;2023-04-30T11:35:07;99056.41;;;20.50;39.96
7888;BME280;3989;48.810;9.208;2023-04-30T11:37:36;98978.13;;;19.96;40.52
7888;BME280;3989;48.810;9.208;2023-04-30T11:40:04;99059.28;;;20.02;41.34
7888;BME280;3989;48.810;9.208;2023-04-30T11:42:32;99025.88;;;19.67;41.18
7888;BME280;3989;48.810;9.208;2023-04-30T11:45:05;99049.84;;;20.16;40.76
7888;BME280;3989;48.810;9.208;2023-04-30T11:47:44;99055.88;;;20.18;40.39
7888;BME280;3989;48.810;9.208;2023-04-30T11:50:13;99021.28;;;20.32;39.34
7888;BME280;3989;48.810;9.208;2023-04-30T11:52:41;98995.09;;;20.61;39.58
7888;BME280;3989;48.810;9.208;2023-04-30T11:55:13;99000.53;;;21.01;38.19
7888;BME280;3989;48.810;9.208;2023-04-30T11:57:41;99033.56;;;21.49;38.23
7888;BME280;3989;48.810;9.208;2023-04-30T12:00:13;99020.91;;;21.55;38.20
7888;BME280;3989;48.810;9.208;2023-04-30T12:02:43;98981.53;;;21.40;37.94
7888;BME280;3989;48.810;9.208;2023-04-30T12:05:12;99031.53;;;21.28;37.93
7888;BME280;3989;48.810;9.208;2023-04-30T12:07:44;98942.66;;;20.43;38.89
7888;BME280;3989;48.810;9.208;2023-04-30T12:10:11;98877.31;;;19.82;39.29
7888;BME280;3989;48.810;9.208;2023-04-30T12:12:38;98888.00;;;19.65;39.65
7888;BME280;3989;48.810;9.208;2023-04-30T12:15:13;98831.31;;;19.29;39.82
7888;BME280;3989;48.810;9.208;2023-04-30T12:17:40;98836.72;;;19.06;39.93
7888;BME280;3989;48.810;9.208;2023-04-30T12:20:10;99018.44;;;19.62;39.95
7888;BME280;3989;48.810;9.208;2023-04-30T12:22:39;99020.94;;;19.16;41.39
7888;BME280;3989;48.810;9.208;2023-04-30T12:25:08;99022.00;;;18.78;41.49
7888;BME280;3989;48.810;9.208;2023-04-30T12:27:38;98991.53;;;19.19;41.48
7888;BME280;3989;48.810;9.208;2023-04-30T12:30:07;99007.13;;;19.65;40.75
7888;BME280;3989;48.810;9.208;2023-04-30T12:32:39;98977.34;;;19.54;40.42
7888;BME280;3989;48.810;9.208;2023-04-30T12:35:12;98879.91;;;18.82;40.37
7888;BME280;3989;48.810;9.208;2023-04-30T12:37:41;99010.47;;;19.67;40.58
7888;BME280;3989;48.810;9.208;2023-04-30T12:40:09;98897.50;;;19.03;40.89
7888;BME280;3989;48.810;9.208;2023-04-30T12:42:36;98944.00;;;19.42;40.61
7888;BME280;3989;48.810;9.208;2023-04-30T12:45:03;99019.44;;;19.91;40.38
7888;BME280;3989;48.810;9.208;2023-04-30T12:47:30;99023.69;;;20.10;40.44
7888;BME280;3989;48.810;9.208;2023-04-30T12:49:56;98981.34;;;19.63;40.62
7888;BME280;3989;48.810;9.208;2023-04-30T12:52:24;98991.25;;;19.69;40.40
7888;BME280;3989;48.810;9.208;2023-04-30T12:54:51;99017.81;;;20.13;39.94
7888;BME280;3989;48.810;9.208;2023-04-30T12:57:18;98902.19;;;19.37;40.06
7888;BME280;3989;48.810;9.208;2023-04-30T12:59:58;99000.72;;;19.89;40.18
7888;BME280;3989;48.810;9.208;2023-04-30T13:02:27;99006.66;;;19.57;40.88
7888;BME280;3989;48.810;9.208;2023-04-30T13:04:56;99002.44;;;19.72;41.61
7888;BME280;3989;48.810;9.208;2023-04-30T13:07:24;98996.59;;;19.87;41.39
7888;BME280;3989;48.810;9.208;2023-04-30T13:09:50;98993.66;;;20.00;41.43
7888;BME280;3989;48.810;9.208;2023-04-30T13:12:17;98992.34;;;19.91;40.69
7888;BME280;3989;48.810;9.208;2023-04-30T13:14:44;98967.63;;;20.11;40.62
7888;BME280;3989;48.810;9.208;2023-04-30T13:17:11;98995.09;;;20.61;39.89
7888;BME280;3989;48.810;9.208;2023-04-30T13:19:38;98983.66;;;20.24;40.10
7888;BME280;3989;48.810;9.208;2023-04-30T13:22:04;98959.19;;;20.30;40.29
7888;BME280;3989;48.810;9.208;2023-04-30T13:24:32;98984.75;;;20.34;40.06
7888;BME280;3989;48.810;9.208;2023-04-30T13:26:59;98973.91;;;20.58;39.88
7888;BME280;3989;48.810;9.208;2023-04-30T13:29:26;98951.84;;;20.54;39.10
7888;BME280;3989;48.810;9.208;2023-04-30T13:31:53;98944.50;;;20.66;38.74
7888;BME280;3989;48.810;9.208;2023-04-30T13:34:19;98876.16;;;20.53;38.63
7888;BME280;3989;48.810;9.208;2023-04-30T13:36:46;98903.06;;;20.82;38.07